sensor_id;sensor_type;location;lat;lon;timestamp;temperature;humidity
61392;DHT22;47261;52.892;5.738;2023-02-22T00:00:16;9.00;99.90
61392;DHT22;47261;52.892;5.738;2023-02-22T00:02:49;9.00;99.90
61392;DHT22;47261;52.892;5.738;2023-02-22T00:05:16;8.90;99.90
61392;DHT22;47261;52.892;5.738;2023-02-22T00:07:48;8.90;99.90
61392;DHT22;47261;52.892;5.738;2023-02-22T00:10:15;8.90;99.90
61392;DHT22;47261;52.892;5.738;2023-02-22T00:12:48;8.90;99.90
61392;DHT22;47261;52.892;5.738;2023-02-22T00:15:16;8.90;99.90
61392;DHT22;47261;52.892;5.738;2023-02-22T00:17:42;9.00;99.90
61392;DHT22;47261;52.892;5.738;2023-02-22T00:20:09;8.90;99.90
61392;DHT22;47261;52.892;5.738;2023-02-22T00:22:42;8.90;99.90
61392;DHT22;47261;52.892;5.738;2023-02-22T00:25:08;8.90;99.90
61392;DHT22;47261;52.892;5.738;2023-02-22T00:27:35;8.90;99.90
61392;DHT22;47261;52.892;5.738;2023-02-22T00:30:02;8.90;99.90
61392;DHT22;47261;52.892;5.738;2023-02-22T00:32:28;9.00;99.90
61392;DHT22;47261;52.892;5.738;2023-02-22T00:34:54;8.90;99.90
61392;DHT22;47261;52.892;5.738;2023-02-22T00:37:20;8.90;99.90
61392;DHT22;47261;52.892;5.738;2023-02-22T00:39:46;8.90;99.90
61392;DHT22;47261;52.892;5.738;2023-02-22T00:42:13;8.90;99.90
61392;DHT22;47261;52.892;5.738;2023-02-22T00:44:39;9.00;99.90
61392;DHT22;47261;52.892;5.738;2023-02-22T00:47:04;8.90;99.90
61392;DHT22;47261;52.892;5.738;2023-02-22T00:49:30;8.90;99.90
61392;DHT22;47261;52.892;5.738;2023-02-22T00:51:55;8.90;99.90
61392;DHT22;47261;52.892;5.738;2023-02-22T00:54:21;8.90;99.90
61392;DHT22;47261;52.892;5.738;2023-02-22T00:56:47;8.90;99.90
61392;DHT22;47261;52.892;5.738;2023-02-22T00:59:15;8.90;99.90
61392;DHT22;47261;52.892;5.738;2023-02-22T01:01:41;8.90;99.90
61392;DHT22;47261;52.892;5.738;2023-02-22T01:04:07;8.90;99.90
61392;DHT22;47261;52.892;5.738;2023-02-22T01:06:34;8.90;99.90
61392;DHT22;47261;52.892;5.738;2023-02-22T01:09:00;8.90;99.90
61392;DHT22;47261;52.892;5.738;2023-02-22T01:11:29;8.90;99.90
61392;DHT22;47261;52.892;5.738;2023-02-22T01:13:55;8.90;99.90
61392;DHT22;47261;52.892;5.738;2023-02-22T01:16:22;8.90;99.90
61392;DHT22;47261;52.892;5.738;2023-02-22T01:18:48;8.90;99.90
61392;DHT22;47261;52.892;5.738;2023-02-22T01:21:13;8.90;99.90
61392;DHT22;47261;52.892;5.738;2023-02-22T01:23:39;8.90;99.90
61392;DHT22;47261;52.892;5.738;2023-02-22T01:26:05;8.90;99.90
61392;DHT22;47261;52.892;5.738;2023-02-22T01:28:31;8.90;99.90
61392;DHT22;47261;52.892;5.738;2023-02-22T01:30:57;8.90;99.90
61392;DHT22;47261;52.892;5.738;2023-02-22T01:33:23;8.90;99.90
61392;DHT22;47261;52.892;5.738;2023-02-22T01:35:50;8.90;99.90
61392;DHT22;47261;52.892;5.738;2023-02-22T01:38:16;8.90;99.90
61392;DHT22;47261;52.892;5.738;2023-02-22T01:40:46;8.90;99.90
61392;DHT22;47261;52.892;5.738;2023-02-22T01:43:29;8.90;99.90
61392;DHT22;47261;52.892;5.738;2023-02-22T01:46:02;8.90;99.90
61392;DHT22;47261;52.892;5.738;2023-02-22T01:48:35;8.80;99.90
61392;DHT22;47261;52.892;5.738;2023-02-22T01:51:12;8.90;99.90
61392;DHT22;47261;52.892;5.738;2023-02-22T01:54:02;8.90;99.90
61392;DHT22;47261;52.892;5.738;2023-02-22T01:56:28;8.90;99.90
61392;DHT22;47261;52.892;5.738;2023-02-22T01:59:05;8.90;99.90
61392;DHT22;47261;52.892;5.738;2023-02-22T02:01:32;8.80;99.90
61392;DHT22;47261;52.892;5.738;2023-02-22T02:04:02;8.80;99.90
61392;DHT22;47261;52.892;5.738;2023-02-22T02:06:31;8.80;99.90
61392;DHT22;47261;52.892;5.738;2023-02-22T02:09:26;8.80;99.90
61392;DHT22;47261;52.892;5.738;2023-02-22T02:11:54;8.80;99.90
61392;DHT22;47261;52.892;5.738;2023-02-22T02:14:21;8.80;99.90
61392;DHT22;47261;52.892;5.738;2023-02-22T02:16:49;8.80;99.90
61392;DHT22;47261;52.892;5.738;2023-02-22T02:38:00;8.90;99.90
61392;DHT22;47261;52.892;5.738;2023-02-22T02:40:34;8.80;99.90
61392;DHT22;47261;52.892;5.738;2023-02-22T02:46:02;8.80;99.90
61392;DHT22;47261;52.892;5.738;2023-02-22T02:48:32;8.80;99.90
61392;DHT22;47261;52.892;5.738;2023-02-22T02:51:00;8.80;99.90
61392;DHT22;47261;52.892;5.738;2023-02-22T02:53:33;8.80;99.90
61392;DHT22;47261;52.892;5.738;2023-02-22T02:56:00;8.80;99.90
61392;DHT22;47261;52.892;5.738;2023-02-22T02:58:27;8.80;99.90
61392;DHT22;47261;52.892;5.738;2023-02-22T03:00:56;8.80;99.90
61392;DHT22;47261;52.892;5.738;2023-02-22T03:09:43;8.80;99.90
61392;DHT22;47261;52.892;5.738;2023-02-22T03:12:16;8.70;99.90
61392;DHT22;47261;52.892;5.738;2023-02-22T03:14:47;8.70;99.90
61392;DHT22;47261;52.892;5.738;2023-02-22T03:17:31;8.70;99.90
61392;DHT22;47261;52.892;5.738;2023-02-22T03:22:56;8.70;99.90
61392;DHT22;47261;52.892;5.738;2023-02-22T03:25:57;8.70;99.90
61392;DHT22;47261;52.892;5.738;2023-02-22T03:28:25;8.70;99.90
61392;DHT22;47261;52.892;5.738;2023-02-22T03:31:14;8.70;99.90
61392;DHT22;47261;52.892;5.738;2023-02-22T03:33:48;8.60;99.90
61392;DHT22;47261;52.892;5.738;2023-02-22T03:36:16;8.60;99.90
61392;DHT22;47261;52.892;5.738;2023-02-22T03:38:45;8.70;99.90
61392;DHT22;47261;52.892;5.738;2023-02-22T03:41:14;8.60;99.90
61392;DHT22;47261;52.892;5.738;2023-02-22T03:43:47;8.60;99.90
61392;DHT22;47261;52.892;5.738;2023-02-22T03:46:15;8.60;99.90
61392;DHT22;47261;52.892;5.738;2023-02-22T03:51:16;8.60;99.90
61392;DHT22;47261;52.892;5.738;2023-02-22T03:53:42;8.60;99.90
61392;DHT22;47261;52.892;5.738;2023-02-22T03:56:19;8.60;99.90
61392;DHT22;47261;52.892;5.738;2023-02-22T03:58:46;8.60;99.90
61392;DHT22;47261;52.892;5.738;2023-02-22T04:01:13;8.50;99.90
61392;DHT22;47261;52.892;5.738;2023-02-22T04:03:38;8.60;99.90
61392;DHT22;47261;52.892;5.738;2023-02-22T04:06:05;8.60;99.90
61392;DHT22;47261;52.892;5.738;2023-02-22T04:08:30;8.60;99.90
61392;DHT22;47261;52.892;5.738;2023-02-22T04:10:56;8.50;99.90
61392;DHT22;47261;52.892;5.738;2023-02-22T04:13:23;8.50;99.90
61392;DHT22;47261;52.892;5.738;2023-02-22T04:15:48;8.50;99.90
61392;DHT22;47261;52.892;5.738;2023-02-22T04:18:14;8.50;99.90
61392;DHT22;47261;52.892;5.738;2023-02-22T04:20:39;8.50;99.90
61392;DHT22;47261;52.892;5.738;2023-02-22T04:23:05;8.50;99.90
61392;DHT22;47261;52.892;5.738;2023-02-22T04:25:31;8.50;99.90
61392;DHT22;47261;52.892;5.738;2023-02-22T04:27:57;8.50;99.90
61392;DHT22;47261;52.892;5.738;2023-02-22T04:30:22;8.40;99.90
61392;DHT22;47261;52.892;5.738;2023-02-22T04:32:48;8.50;99.90
61392;DHT22;47261;52.892;5.738;2023-02-22T04:35:14;8.50;99.90
61392;DHT22;47261;52.892;5.738;2023-02-22T04:37:40;8.40;99.90
61392;DHT22;47261;52.892;5.738;2023-02-22T04:40:06;8.50;99.90
61392;DHT22;47261;52.892;5.738;2023-02-22T04:42:33;8.50;99.90
61392;DHT22;47261;52.892;5.738;2023-02-22T04:44:59;8.40;99.90
61392;DHT22;47261;52.892;5.738;2023-02-22T04:47:25;8.50;99.90
61392;DHT22;47261;52.892;5.738;2023-02-22T04:49:50;8.40;99.90
61392;DHT22;47261;52.892;5.738;2023-02-22T04:52:16;8.50;99.90
61392;DHT22;47261;52.892;5.738;2023-02-22T04:54:42;8.40;99.90
61392;DHT22;47261;52.892;5.738;2023-02-22T04:57:07;8.50;99.90
61392;DHT22;47261;52.892;5.738;2023-02-22T04:59:33;8.50;99.90
61392;DHT22;47261;52.892;5.738;2023-02-22T05:01:59;8.50;99.90
61392;DHT22;47261;52.892;5.738;2023-02-22T05:04:25;8.50;99.90
61392;DHT22;47261;52.892;5.738;2023-02-22T05:06:51;8.40;99.90
61392;DHT22;47261;52.892;5.738;2023-02-22T05:09:16;8.50;99.90
61392;DHT22;47261;52.892;5.738;2023-02-22T05:11:42;8.40;99.90
61392;DHT22;47261;52.892;5.738;2023-02-22T05:14:08;8.40;99.90
61392;DHT22;47261;52.892;5.738;2023-02-22T05:16:33;8.40;99.90
61392;DHT22;47261;52.892;5.738;2023-02-22T05:19:00;8.40;99.90
61392;DHT22;47261;52.892;5.738;2023-02-22T05:21:26;8.40;99.90
61392;DHT22;47261;52.892;5.738;2023-02-22T05:23:52;8.30;99.90
61392;DHT22;47261;52.892;5.738;2023-02-22T05:26:17;8.30;99.90
61392;DHT22;47261;52.892;5.738;2023-02-22T05:28:43;8.20;99.90
61392;DHT22;47261;52.892;5.738;2023-02-22T05:31:09;8.30;99.90
61392;DHT22;47261;52.892;5.738;2023-02-22T05:33:34;8.20;99.90
61392;DHT22;47261;52.892;5.738;2023-02-22T05:36:00;8.20;99.90
61392;DHT22;47261;52.892;5.738;2023-02-22T05:38:26;8.20;99.90
61392;DHT22;47261;52.892;5.738;2023-02-22T05:40:52;8.20;99.90
61392;DHT22;47261;52.892;5.738;2023-02-22T05:43:18;8.20;99.90
61392;DHT22;47261;52.892;5.738;2023-02-22T05:45:43;8.10;99.90
61392;DHT22;47261;52.892;5.738;2023-02-22T05:48:09;8.10;99.90
61392;DHT22;47261;52.892;5.738;2023-02-22T05:50:37;8.10;99.90
61392;DHT22;47261;52.892;5.738;2023-02-22T05:53:03;8.00;99.90
61392;DHT22;47261;52.892;5.738;2023-02-22T05:55:30;8.00;99.90
61392;DHT22;47261;52.892;5.738;2023-02-22T05:57:55;8.00;99.90
61392;DHT22;47261;52.892;5.738;2023-02-22T06:00:27;7.90;99.90
61392;DHT22;47261;52.892;5.738;2023-02-22T06:03:11;7.90;99.90
61392;DHT22;47261;52.892;5.738;2023-02-22T06:05:37;7.80;99.90
61392;DHT22;47261;52.892;5.738;2023-02-22T06:08:05;7.80;99.90
61392;DHT22;47261;52.892;5.738;2023-02-22T06:10:31;7.80;99.90
61392;DHT22;47261;52.892;5.738;2023-02-22T06:12:57;7.70;99.90
61392;DHT22;47261;52.892;5.738;2023-02-22T06:15:24;7.70;99.90
61392;DHT22;47261;52.892;5.738;2023-02-22T06:17:51;7.70;99.90
61392;DHT22;47261;52.892;5.738;2023-02-22T06:20:19;7.60;99.90
61392;DHT22;47261;52.892;5.738;2023-02-22T06:22:47;7.50;99.90
61392;DHT22;47261;52.892;5.738;2023-02-22T06:25:14;7.50;99.90
61392;DHT22;47261;52.892;5.738;2023-02-22T06:27:40;7.50;99.90
61392;DHT22;47261;52.892;5.738;2023-02-22T06:30:07;7.40;99.90
61392;DHT22;47261;52.892;5.738;2023-02-22T06:32:33;7.40;99.90
61392;DHT22;47261;52.892;5.738;2023-02-22T06:34:59;7.40;99.90
61392;DHT22;47261;52.892;5.738;2023-02-22T06:37:25;7.40;99.90
61392;DHT22;47261;52.892;5.738;2023-02-22T06:39:50;7.40;99.90
61392;DHT22;47261;52.892;5.738;2023-02-22T06:42:16;7.30;99.90
61392;DHT22;47261;52.892;5.738;2023-02-22T06:44:41;7.30;99.90
61392;DHT22;47261;52.892;5.738;2023-02-22T06:47:07;7.30;99.90
61392;DHT22;47261;52.892;5.738;2023-02-22T06:49:33;7.30;99.90
61392;DHT22;47261;52.892;5.738;2023-02-22T06:51:58;7.20;99.90
61392;DHT22;47261;52.892;5.738;2023-02-22T06:54:24;7.20;99.90
61392;DHT22;47261;52.892;5.738;2023-02-22T06:56:50;7.20;99.90
61392;DHT22;47261;52.892;5.738;2023-02-22T06:59:15;7.20;99.90
61392;DHT22;47261;52.892;5.738;2023-02-22T07:01:42;7.10;99.90
61392;DHT22;47261;52.892;5.738;2023-02-22T07:04:08;7.10;99.90
61392;DHT22;47261;52.892;5.738;2023-02-22T07:06:33;7.10;99.90
61392;DHT22;47261;52.892;5.738;2023-02-22T07:08:59;7.00;99.90
61392;DHT22;47261;52.892;5.738;2023-02-22T07:11:25;7.00;99.90
61392;DHT22;47261;52.892;5.738;2023-02-22T07:13:51;7.00;99.90
61392;DHT22;47261;52.892;5.738;2023-02-22T07:16:17;7.00;99.90
61392;DHT22;47261;52.892;5.738;2023-02-22T07:18:43;7.00;99.90
61392;DHT22;47261;52.892;5.738;2023-02-22T07:21:08;7.00;99.90
61392;DHT22;47261;52.892;5.738;2023-02-22T07:23:35;7.00;99.90
61392;DHT22;47261;52.892;5.738;2023-02-22T07:26:01;7.00;99.90
61392;DHT22;47261;52.892;5.738;2023-02-22T07:28:27;7.00;99.90
61392;DHT22;47261;52.892;5.738;2023-02-22T07:30:53;7.10;99.90
61392;DHT22;47261;52.892;5.738;2023-02-22T07:33:19;7.10;99.90
61392;DHT22;47261;52.892;5.738;2023-02-22T07:35:47;7.10;99.90
61392;DHT22;47261;52.892;5.738;2023-02-22T07:38:15;7.10;99.90
61392;DHT22;47261;52.892;5.738;2023-02-22T07:40:41;7.10;99.90
61392;DHT22;47261;52.892;5.738;2023-02-22T07:43:17;7.10;99.90
61392;DHT22;47261;52.892;5.738;2023-02-22T07:45:43;7.20;99.90
61392;DHT22;47261;52.892;5.738;2023-02-22T07:48:10;7.20;99.90
61392;DHT22;47261;52.892;5.738;2023-02-22T07:50:37;7.20;99.90
61392;DHT22;47261;52.892;5.738;2023-02-22T07:53:05;7.30;99.90
61392;DHT22;47261;52.892;5.738;2023-02-22T07:55:32;7.30;99.90
61392;DHT22;47261;52.892;5.738;2023-02-22T07:58:00;7.30;99.90
61392;DHT22;47261;52.892;5.738;2023-02-22T08:02:54;7.30;99.90
61392;DHT22;47261;52.892;5.738;2023-02-22T08:05:22;7.30;99.90
61392;DHT22;47261;52.892;5.738;2023-02-22T08:07:48;7.30;99.90
61392;DHT22;47261;52.892;5.738;2023-02-22T08:10:15;7.30;99.90
61392;DHT22;47261;52.892;5.738;2023-02-22T08:12:41;7.30;99.90
61392;DHT22;47261;52.892;5.738;2023-02-22T08:15:08;7.30;99.90
61392;DHT22;47261;52.892;5.738;2023-02-22T08:17:34;7.30;99.90
61392;DHT22;47261;52.892;5.738;2023-02-22T08:20:00;7.30;99.90
61392;DHT22;47261;52.892;5.738;2023-02-22T08:22:26;7.30;99.90
61392;DHT22;47261;52.892;5.738;2023-02-22T08:24:54;7.40;99.90
61392;DHT22;47261;52.892;5.738;2023-02-22T08:27:24;7.40;99.90
61392;DHT22;47261;52.892;5.738;2023-02-22T08:29:50;7.40;99.90
61392;DHT22;47261;52.892;5.738;2023-02-22T08:32:16;7.40;99.90
61392;DHT22;47261;52.892;5.738;2023-02-22T08:34:42;7.50;99.90
61392;DHT22;47261;52.892;5.738;2023-02-22T08:37:08;7.50;99.90
61392;DHT22;47261;52.892;5.738;2023-02-22T08:39:33;7.50;99.90
61392;DHT22;47261;52.892;5.738;2023-02-22T08:41:59;7.50;99.90
61392;DHT22;47261;52.892;5.738;2023-02-22T08:44:25;7.50;99.90
61392;DHT22;47261;52.892;5.738;2023-02-22T08:46:50;7.50;99.90
61392;DHT22;47261;52.892;5.738;2023-02-22T08:49:16;7.50;99.90
61392;DHT22;47261;52.892;5.738;2023-02-22T08:51:42;7.50;99.90
61392;DHT22;47261;52.892;5.738;2023-02-22T08:54:08;7.50;99.90
61392;DHT22;47261;52.892;5.738;2023-02-22T08:56:33;7.60;99.90
61392;DHT22;47261;52.892;5.738;2023-02-22T08:58:59;7.60;99.90
61392;DHT22;47261;52.892;5.738;2023-02-22T09:01:25;7.50;99.90
61392;DHT22;47261;52.892;5.738;2023-02-22T09:03:52;7.50;99.90
61392;DHT22;47261;52.892;5.738;2023-02-22T09:06:18;7.50;99.90
61392;DHT22;47261;52.892;5.738;2023-02-22T09:08:43;7.60;99.90
61392;DHT22;47261;52.892;5.738;2023-02-22T09:11:09;7.60;99.90
61392;DHT22;47261;52.892;5.738;2023-02-22T09:13:35;7.60;99.90
61392;DHT22;47261;52.892;5.738;2023-02-22T09:16:00;7.60;99.90
61392;DHT22;47261;52.892;5.738;2023-02-22T09:18:26;7.70;99.90
61392;DHT22;47261;52.892;5.738;2023-02-22T09:20:52;7.70;99.90
61392;DHT22;47261;52.892;5.738;2023-02-22T09:23:18;7.70;99.90
61392;DHT22;47261;52.892;5.738;2023-02-22T09:25:46;7.80;99.90
61392;DHT22;47261;52.892;5.738;2023-02-22T09:28:12;7.80;99.90
61392;DHT22;47261;52.892;5.738;2023-02-22T09:30:38;7.90;99.90
61392;DHT22;47261;52.892;5.738;2023-02-22T09:33:24;7.90;99.90
61392;DHT22;47261;52.892;5.738;2023-02-22T09:35:50;7.90;99.90
61392;DHT22;47261;52.892;5.738;2023-02-22T09:38:18;8.00;99.90
61392;DHT22;47261;52.892;5.738;2023-02-22T09:40:51;8.00;99.90
61392;DHT22;47261;52.892;5.738;2023-02-22T09:51:19;8.20;99.90
61392;DHT22;47261;52.892;5.738;2023-02-22T09:53:47;8.20;99.90
61392;DHT22;47261;52.892;5.738;2023-02-22T09:56:16;8.20;99.90
61392;DHT22;47261;52.892;5.738;2023-02-22T09:58:50;8.30;99.90
61392;DHT22;47261;52.892;5.738;2023-02-22T10:01:40;8.30;99.90
61392;DHT22;47261;52.892;5.738;2023-02-22T10:07:10;8.40;99.90
61392;DHT22;47261;52.892;5.738;2023-02-22T10:09:41;8.30;99.90
61392;DHT22;47261;52.892;5.738;2023-02-22T10:12:30;8.40;99.90
61392;DHT22;47261;52.892;5.738;2023-02-22T10:15:34;8.40;99.90
61392;DHT22;47261;52.892;5.738;2023-02-22T10:18:04;8.40;99.90
61392;DHT22;47261;52.892;5.738;2023-02-22T10:23:31;8.50;99.90
61392;DHT22;47261;52.892;5.738;2023-02-22T10:26:35;8.50;99.90
61392;DHT22;47261;52.892;5.738;2023-02-22T10:29:26;8.60;99.90
61392;DHT22;47261;52.892;5.738;2023-02-22T10:32:00;8.60;99.90
61392;DHT22;47261;52.892;5.738;2023-02-22T10:34:42;8.60;99.90
61392;DHT22;47261;52.892;5.738;2023-02-22T10:42:38;8.80;99.90
61392;DHT22;47261;52.892;5.738;2023-02-22T10:45:05;8.80;99.90
61392;DHT22;47261;52.892;5.738;2023-02-22T10:47:32;8.90;99.90
61392;DHT22;47261;52.892;5.738;2023-02-22T10:49:59;8.90;99.90
61392;DHT22;47261;52.892;5.738;2023-02-22T10:52:31;8.90;99.90
61392;DHT22;47261;52.892;5.738;2023-02-22T10:55:00;9.00;99.90
61392;DHT22;47261;52.892;5.738;2023-02-22T10:57:32;9.00;99.90
61392;DHT22;47261;52.892;5.738;2023-02-22T11:00:23;9.10;99.90
61392;DHT22;47261;52.892;5.738;2023-02-22T11:03:05;9.10;99.90
61392;DHT22;47261;52.892;5.738;2023-02-22T11:05:41;9.10;99.90
61392;DHT22;47261;52.892;5.738;2023-02-22T11:10:56;9.00;99.90
61392;DHT22;47261;52.892;5.738;2023-02-22T11:13:36;9.00;99.90
61392;DHT22;47261;52.892;5.738;2023-02-22T11:16:18;9.00;99.90
61392;DHT22;47261;52.892;5.738;2023-02-22T11:18:45;8.90;99.90
61392;DHT22;47261;52.892;5.738;2023-02-22T11:21:12;8.80;99.90
61392;DHT22;47261;52.892;5.738;2023-02-22T11:23:42;8.80;99.90
61392;DHT22;47261;52.892;5.738;2023-02-22T11:26:17;8.80;99.90
61392;DHT22;47261;52.892;5.738;2023-02-22T11:28:50;8.80;99.90
61392;DHT22;47261;52.892;5.738;2023-02-22T11:31:22;8.80;99.90
61392;DHT22;47261;52.892;5.738;2023-02-22T11:34:00;8.80;99.90
61392;DHT22;47261;52.892;5.738;2023-02-22T11:36:40;8.90;99.90
61392;DHT22;47261;52.892;5.738;2023-02-22T11:39:25;9.00;99.90
61392;DHT22;47261;52.892;5.738;2023-02-22T11:41:51;9.10;99.90
61392;DHT22;47261;52.892;5.738;2023-02-22T11:44:27;9.10;99.90
61392;DHT22;47261;52.892;5.738;2023-02-22T11:46:55;9.20;99.90
61392;DHT22;47261;52.892;5.738;2023-02-22T11:49:35;9.20;99.90
61392;DHT22;47261;52.892;5.738;2023-02-22T12:11:10;9.50;99.90
61392;DHT22;47261;52.892;5.738;2023-02-22T12:19:10;9.50;99.90
61392;DHT22;47261;52.892;5.738;2023-02-22T12:21:41;9.50;99.90
61392;DHT22;47261;52.892;5.738;2023-02-22T12:24:15;9.50;99.90
61392;DHT22;47261;52.892;5.738;2023-02-22T12:26:50;9.50;99.90
61392;DHT22;47261;52.892;5.738;2023-02-22T12:29:33;9.50;99.90
61392;DHT22;47261;52.892;5.738;2023-02-22T12:35:02;9.60;99.90
61392;DHT22;47261;52.892;5.738;2023-02-22T12:37:42;9.60;99.90
61392;DHT22;47261;52.892;5.738;2023-02-22T12:43:14;9.70;99.90
61392;DHT22;47261;52.892;5.738;2023-02-22T12:45:49;9.80;99.90
61392;DHT22;47261;52.892;5.738;2023-02-22T12:53:48;10.10;99.90
61392;DHT22;47261;52.892;5.738;2023-02-22T12:56:31;10.10;99.90
61392;DHT22;47261;52.892;5.738;2023-02-22T12:59:32;10.20;99.90
61392;DHT22;47261;52.892;5.738;2023-02-22T13:02:14;10.20;99.90
61392;DHT22;47261;52.892;5.738;2023-02-22T13:04:41;10.20;99.90
61392;DHT22;47261;52.892;5.738;2023-02-22T13:10:06;10.20;99.90
61392;DHT22;47261;52.892;5.738;2023-02-22T13:23:40;10.30;99.90
61392;DHT22;47261;52.892;5.738;2023-02-22T13:26:22;10.30;99.90
61392;DHT22;47261;52.892;5.738;2023-02-22T13:32:04;10.30;99.90
61392;DHT22;47261;52.892;5.738;2023-02-22T13:53:13;10.30;99.90
61392;DHT22;47261;52.892;5.738;2023-02-22T13:55:46;10.30;99.90
61392;DHT22;47261;52.892;5.738;2023-02-22T13:58:16;10.30;99.90
61392;DHT22;47261;52.892;5.738;2023-02-22T14:11:00;10.40;99.90
61392;DHT22;47261;52.892;5.738;2023-02-22T14:16:37;10.50;99.90
61392;DHT22;47261;52.892;5.738;2023-02-22T14:19:20;10.60;99.90
61392;DHT22;47261;52.892;5.738;2023-02-22T14:21:59;10.60;99.90
61392;DHT22;47261;52.892;5.738;2023-02-22T14:24:44;10.60;99.90
61392;DHT22;47261;52.892;5.738;2023-02-22T14:27:12;10.60;99.90
61392;DHT22;47261;52.892;5.738;2023-02-22T14:29:55;10.60;99.90
61392;DHT22;47261;52.892;5.738;2023-02-22T14:32:30;10.60;99.90
61392;DHT22;47261;52.892;5.738;2023-02-22T14:34:59;10.60;99.90
61392;DHT22;47261;52.892;5.738;2023-02-22T14:37:31;10.60;99.90
61392;DHT22;47261;52.892;5.738;2023-02-22T14:40:18;10.70;99.90
61392;DHT22;47261;52.892;5.738;2023-02-22T14:43:09;10.70;99.90
61392;DHT22;47261;52.892;5.738;2023-02-22T14:45:51;10.70;99.90
61392;DHT22;47261;52.892;5.738;2023-02-22T14:48:26;10.70;99.90
61392;DHT22;47261;52.892;5.738;2023-02-22T14:50:59;10.70;99.90
61392;DHT22;47261;52.892;5.738;2023-02-22T14:56:06;10.80;99.90
61392;DHT22;47261;52.892;5.738;2023-02-22T15:01:22;10.70;99.90
61392;DHT22;47261;52.892;5.738;2023-02-22T15:03:48;10.70;99.90
61392;DHT22;47261;52.892;5.738;2023-02-22T15:06:20;10.70;99.90
61392;DHT22;47261;52.892;5.738;2023-02-22T15:08:47;10.70;99.90
61392;DHT22;47261;52.892;5.738;2023-02-22T15:11:27;10.60;99.90
61392;DHT22;47261;52.892;5.738;2023-02-22T15:13:56;10.60;99.90
61392;DHT22;47261;52.892;5.738;2023-02-22T15:16:25;10.60;99.90
61392;DHT22;47261;52.892;5.738;2023-02-22T15:18:54;10.60;99.90
61392;DHT22;47261;52.892;5.738;2023-02-22T15:21:24;10.60;99.90
61392;DHT22;47261;52.892;5.738;2023-02-22T15:23:52;10.60;99.90
61392;DHT22;47261;52.892;5.738;2023-02-22T15:26:31;10.60;99.90
61392;DHT22;47261;52.892;5.738;2023-02-22T15:29:22;10.50;99.90
61392;DHT22;47261;52.892;5.738;2023-02-22T15:31:53;10.50;99.90
61392;DHT22;47261;52.892;5.738;2023-02-22T15:34:30;10.50;99.90
61392;DHT22;47261;52.892;5.738;2023-02-22T15:37:00;10.50;99.90
61392;DHT22;47261;52.892;5.738;2023-02-22T15:39:33;10.50;99.90
61392;DHT22;47261;52.892;5.738;2023-02-22T15:42:13;10.40;99.90
61392;DHT22;47261;52.892;5.738;2023-02-22T15:44:47;10.40;99.90
61392;DHT22;47261;52.892;5.738;2023-02-22T15:47:24;10.40;99.90
61392;DHT22;47261;52.892;5.738;2023-02-22T15:52:53;10.40;99.90
61392;DHT22;47261;52.892;5.738;2023-02-22T15:55:31;10.30;99.90
61392;DHT22;47261;52.892;5.738;2023-02-22T15:58:09;10.40;99.90
61392;DHT22;47261;52.892;5.738;2023-02-22T16:00:44;10.40;99.90
61392;DHT22;47261;52.892;5.738;2023-02-22T16:03:13;10.40;99.90
61392;DHT22;47261;52.892;5.738;2023-02-22T16:05:46;10.40;99.90
61392;DHT22;47261;52.892;5.738;2023-02-22T16:10:48;10.40;99.90
61392;DHT22;47261;52.892;5.738;2023-02-22T16:13:23;10.40;99.90
61392;DHT22;47261;52.892;5.738;2023-02-22T16:15:56;10.40;99.90
61392;DHT22;47261;52.892;5.738;2023-02-22T16:18:35;10.40;99.90
61392;DHT22;47261;52.892;5.738;2023-02-22T16:21:10;10.40;99.90
61392;DHT22;47261;52.892;5.738;2023-02-22T16:28:55;10.40;99.90
61392;DHT22;47261;52.892;5.738;2023-02-22T16:31:24;10.40;99.90
61392;DHT22;47261;52.892;5.738;2023-02-22T16:33:51;10.40;99.90
61392;DHT22;47261;52.892;5.738;2023-02-22T16:36:19;10.40;99.90
61392;DHT22;47261;52.892;5.738;2023-02-22T16:38:45;10.40;99.90
61392;DHT22;47261;52.892;5.738;2023-02-22T16:41:16;10.30;99.90
61392;DHT22;47261;52.892;5.738;2023-02-22T16:43:48;10.30;99.90
61392;DHT22;47261;52.892;5.738;2023-02-22T16:46:16;10.30;99.90
61392;DHT22;47261;52.892;5.738;2023-02-22T16:48:43;10.30;99.90
61392;DHT22;47261;52.892;5.738;2023-02-22T16:51:21;10.30;99.90
61392;DHT22;47261;52.892;5.738;2023-02-22T16:53:47;10.30;99.90
61392;DHT22;47261;52.892;5.738;2023-02-22T16:56:15;10.20;99.90
61392;DHT22;47261;52.892;5.738;2023-02-22T16:58:42;10.20;99.90
61392;DHT22;47261;52.892;5.738;2023-02-22T17:01:08;10.20;99.90
61392;DHT22;47261;52.892;5.738;2023-02-22T17:03:34;10.10;99.90
61392;DHT22;47261;52.892;5.738;2023-02-22T17:06:00;9.90;99.90
61392;DHT22;47261;52.892;5.738;2023-02-22T17:08:26;9.90;99.90
61392;DHT22;47261;52.892;5.738;2023-02-22T17:10:53;9.80;99.90
61392;DHT22;47261;52.892;5.738;2023-02-22T17:13:23;9.70;99.90
61392;DHT22;47261;52.892;5.738;2023-02-22T17:15:49;9.60;99.90
61392;DHT22;47261;52.892;5.738;2023-02-22T17:18:17;9.60;99.90
61392;DHT22;47261;52.892;5.738;2023-02-22T17:20:50;9.50;99.90
61392;DHT22;47261;52.892;5.738;2023-02-22T17:23:16;9.40;99.90
61392;DHT22;47261;52.892;5.738;2023-02-22T17:25:47;9.40;99.90
61392;DHT22;47261;52.892;5.738;2023-02-22T17:28:13;9.30;99.90
61392;DHT22;47261;52.892;5.738;2023-02-22T17:30:39;9.20;99.90
61392;DHT22;47261;52.892;5.738;2023-02-22T17:33:07;9.20;99.90
61392;DHT22;47261;52.892;5.738;2023-02-22T17:35:36;9.20;99.90
61392;DHT22;47261;52.892;5.738;2023-02-22T17:38:04;9.10;99.90
61392;DHT22;47261;52.892;5.738;2023-02-22T17:40:37;9.10;99.90
61392;DHT22;47261;52.892;5.738;2023-02-22T17:43:04;9.00;99.90
61392;DHT22;47261;52.892;5.738;2023-02-22T17:45:34;9.00;99.90
61392;DHT22;47261;52.892;5.738;2023-02-22T17:48:01;9.00;99.90
61392;DHT22;47261;52.892;5.738;2023-02-22T17:50:27;9.00;99.90
61392;DHT22;47261;52.892;5.738;2023-02-22T17:52:55;9.00;99.90
61392;DHT22;47261;52.892;5.738;2023-02-22T17:55:21;8.90;99.90
61392;DHT22;47261;52.892;5.738;2023-02-22T17:57:52;8.90;99.90
61392;DHT22;47261;52.892;5.738;2023-02-22T18:00:24;8.90;99.90
61392;DHT22;47261;52.892;5.738;2023-02-22T18:02:59;8.90;99.90
61392;DHT22;47261;52.892;5.738;2023-02-22T18:05:25;8.80;99.90
61392;DHT22;47261;52.892;5.738;2023-02-22T18:07:51;8.90;99.90
61392;DHT22;47261;52.892;5.738;2023-02-22T18:10:17;8.80;99.90
61392;DHT22;47261;52.892;5.738;2023-02-22T18:12:46;8.80;99.90
61392;DHT22;47261;52.892;5.738;2023-02-22T18:15:13;8.80;99.90
61392;DHT22;47261;52.892;5.738;2023-02-22T18:17:43;8.80;99.90
61392;DHT22;47261;52.892;5.738;2023-02-22T18:20:10;8.80;99.90
61392;DHT22;47261;52.892;5.738;2023-02-22T18:22:39;8.70;99.90
61392;DHT22;47261;52.892;5.738;2023-02-22T18:25:09;8.70;99.90
61392;DHT22;47261;52.892;5.738;2023-02-22T18:27:34;8.70;99.90
61392;DHT22;47261;52.892;5.738;2023-02-22T18:30:00;8.70;99.90
61392;DHT22;47261;52.892;5.738;2023-02-22T18:32:26;8.70;99.90
61392;DHT22;47261;52.892;5.738;2023-02-22T18:34:58;8.70;99.90
61392;DHT22;47261;52.892;5.738;2023-02-22T18:37:24;8.70;99.90